createdAt,value
2019-05-22T00:00:59.234Z,13.80
2019-05-22T00:03:40.178Z,13.80
2019-05-22T00:06:21.983Z,13.60
2019-05-22T00:08:59.056Z,13.60
2019-05-22T00:11:34.686Z,13.50
2019-05-22T00:14:10.414Z,13.50
2019-05-22T00:16:45.771Z,13.50
2019-05-22T00:19:20.821Z,13.50
2019-05-22T00:22:01.046Z,13.50
2019-05-22T00:24:38.647Z,13.40
2019-05-22T00:27:14.474Z,13.50
2019-05-22T00:29:49.042Z,13.50
2019-05-22T00:32:23.155Z,13.50
2019-05-22T00:34:57.492Z,13.50
2019-05-22T00:37:31.622Z,13.40
2019-05-22T00:40:07.650Z,13.40
2019-05-22T00:43:01.167Z,13.20
2019-05-22T00:45:21.768Z,13.20
2019-05-22T00:47:55.728Z,13.10
2019-05-22T00:50:41.779Z,13.10
2019-05-22T00:53:34.464Z,12.90
2019-05-22T00:56:45.643Z,12.80
2019-05-22T00:59:27.638Z,12.70
2019-05-22T01:02:04.978Z,12.60
2019-05-22T01:04:42.182Z,12.60
2019-05-22T01:07:21.397Z,12.60
2019-05-22T01:09:59.406Z,12.60
2019-05-22T01:12:34.009Z,12.60
2019-05-22T01:15:11.810Z,12.50
2019-05-22T01:17:45.519Z,12.50
2019-05-22T01:20:22.687Z,12.50
2019-05-22T01:22:58.226Z,12.40
2019-05-22T01:25:34.632Z,12.40
2019-05-22T01:28:09.622Z,12.40
2019-05-22T01:31:04.399Z,12.50
2019-05-22T01:33:58.444Z,12.50
2019-05-22T01:36:45.321Z,12.60
2019-05-22T01:39:37.747Z,12.60
2019-05-22T01:42:15.049Z,12.60
2019-05-22T01:45:04.966Z,12.60
2019-05-22T01:47:49.257Z,12.60
2019-05-22T01:50:58.115Z,12.60
2019-05-22T01:53:38.139Z,12.70
2019-05-22T01:56:14.265Z,12.80
2019-05-22T01:58:48.179Z,12.90
2019-05-22T02:01:24.857Z,12.90
2019-05-22T02:04:00.603Z,12.90
2019-05-22T02:06:34.696Z,12.90
2019-05-22T02:09:29.684Z,12.90
2019-05-22T02:12:25.740Z,12.90
2019-05-22T02:14:58.721Z,12.90
2019-05-22T02:17:35.987Z,12.90
2019-05-22T02:20:11.744Z,12.90
2019-05-22T02:22:47.284Z,13.00
2019-05-22T02:25:20.845Z,13.00
2019-05-22T02:27:58.965Z,13.10
2019-05-22T02:30:34.044Z,13.10
2019-05-22T02:33:09.513Z,13.10
2019-05-22T02:35:43.278Z,13.10
2019-05-22T02:38:17.335Z,13.10
2019-05-22T02:40:53.429Z,13.10
2019-05-22T02:43:29.633Z,13.20
2019-05-22T02:46:04.336Z,13.10
2019-05-22T02:48:42.130Z,13.20
2019-05-22T02:51:13.153Z,13.20
2019-05-22T02:53:47.355Z,13.30
2019-05-22T02:56:20.853Z,13.30
2019-05-22T02:58:55.798Z,13.30
2019-05-22T03:01:30.751Z,13.30
2019-05-22T03:04:06.037Z,13.30
2019-05-22T03:06:40.706Z,13.30
2019-05-22T03:09:30.108Z,13.30
2019-05-22T03:12:09.242Z,13.30
2019-05-22T03:14:43.887Z,13.30
2019-05-22T03:17:32.439Z,13.20
2019-05-22T03:20:14.514Z,13.30
2019-05-22T03:23:18.611Z,13.30
2019-05-22T03:25:53.306Z,13.30
2019-05-22T03:28:27.807Z,13.30
2019-05-22T03:31:01.788Z,13.30
2019-05-22T03:33:35.315Z,13.30
2019-05-22T03:36:21.565Z,13.30
2019-05-22T03:38:55.863Z,13.30
2019-05-22T03:41:28.782Z,13.40
2019-05-22T03:44:04.320Z,13.40
2019-05-22T03:46:48.985Z,13.40
2019-05-22T03:49:31.172Z,13.40
2019-05-22T03:51:58.913Z,13.40
2019-05-22T03:54:35.848Z,13.40
2019-05-22T03:57:11.168Z,13.40
2019-05-22T03:59:45.892Z,13.40
2019-05-22T04:02:19.562Z,13.30
2019-05-22T04:04:54.719Z,13.20
2019-05-22T04:07:30.794Z,13.20
2019-05-22T04:10:05.924Z,13.20
2019-05-22T04:12:40.924Z,13.20
2019-05-22T04:15:16.170Z,13.20
2019-05-22T04:17:49.967Z,13.30
2019-05-22T04:20:25.413Z,13.30
2019-05-22T04:23:02.096Z,13.40
2019-05-22T04:25:35.522Z,13.40
2019-05-22T04:28:10.151Z,13.40
2019-05-22T04:30:44.037Z,13.40
2019-05-22T04:33:19.194Z,13.30
2019-05-22T04:35:53.259Z,13.40
2019-05-22T04:38:27.537Z,13.40
2019-05-22T04:41:02.996Z,13.50
2019-05-22T04:43:37.209Z,13.50
2019-05-22T04:46:19.208Z,13.60
2019-05-22T04:48:53.457Z,13.50
2019-05-22T04:51:33.106Z,13.60
2019-05-22T04:54:06.885Z,13.60
2019-05-22T04:56:41.259Z,13.60
2019-05-22T04:59:17.097Z,13.60
2019-05-22T05:01:50.964Z,13.40
2019-05-22T05:04:24.803Z,13.40
2019-05-22T05:06:59.115Z,13.40
2019-05-22T05:09:32.944Z,13.40
2019-05-22T05:12:11.509Z,13.50
2019-05-22T05:14:45.559Z,13.60
2019-05-22T05:17:19.447Z,13.60
2019-05-22T05:19:52.740Z,13.70
2019-05-22T05:22:45.275Z,13.80
2019-05-22T05:25:20.351Z,13.80
2019-05-22T05:27:54.182Z,13.90
2019-05-22T05:30:30.052Z,14.10
2019-05-22T05:33:04.376Z,14.20
2019-05-22T05:35:39.718Z,14.30
2019-05-22T05:38:14.412Z,14.50
2019-05-22T05:40:49.832Z,14.50
2019-05-22T05:43:24.755Z,14.60
2019-05-22T05:45:58.915Z,14.80
2019-05-22T05:48:35.725Z,15.20
2019-05-22T05:51:43.591Z,15.30
2019-05-22T05:54:19.108Z,15.50
2019-05-22T05:56:56.215Z,15.60
2019-05-22T05:59:31.733Z,15.50
2019-05-22T06:02:07.474Z,15.50
2019-05-22T06:04:43.244Z,15.70
2019-05-22T06:07:27.054Z,15.70
2019-05-22T06:11:05.109Z,15.80
2019-05-22T06:13:38.686Z,16.00
2019-05-22T06:17:14.653Z,16.10
2019-05-22T06:19:52.777Z,16.30
2019-05-22T06:22:26.582Z,16.70
2019-05-22T06:25:06.734Z,16.90
2019-05-22T06:27:45.506Z,17.00
2019-05-22T06:30:22.240Z,17.00
2019-05-22T06:33:48.494Z,17.30
2019-05-22T06:36:25.171Z,16.90
2019-05-22T06:39:16.563Z,16.70
2019-05-22T06:41:51.568Z,16.50
2019-05-22T06:44:43.791Z,16.70
2019-05-22T06:47:26.222Z,16.60
2019-05-22T06:50:00.684Z,16.60
2019-05-22T06:52:34.768Z,16.50
2019-05-22T06:55:09.160Z,16.60
2019-05-22T06:57:43.221Z,16.70
2019-05-22T07:00:24.459Z,16.80
2019-05-22T07:02:57.796Z,17.10
2019-05-22T07:05:31.592Z,17.20
2019-05-22T07:08:06.392Z,17.30
2019-05-22T07:10:42.038Z,17.10
2019-05-22T07:13:17.326Z,16.80
2019-05-22T07:15:55.254Z,16.60
2019-05-22T07:18:32.353Z,16.70
2019-05-22T07:21:07.200Z,16.80
2019-05-22T07:23:40.613Z,16.60
2019-05-22T07:26:14.520Z,17.20
2019-05-22T07:28:48.145Z,17.90
2019-05-22T07:31:22.588Z,18.50
2019-05-22T07:33:58.003Z,18.80
2019-05-22T07:36:34.145Z,18.80
2019-05-22T07:39:10.529Z,19.50
2019-05-22T07:41:44.442Z,19.90
2019-05-22T07:44:17.719Z,20.20
2019-05-22T07:46:51.311Z,20.50
2019-05-22T07:49:25.359Z,20.60
2019-05-22T07:52:01.746Z,20.30
2019-05-22T07:54:34.344Z,19.70
2019-05-22T07:57:07.947Z,19.20
2019-05-22T07:59:44.998Z,18.70
2019-05-22T08:02:19.795Z,18.30
2019-05-22T08:04:53.335Z,17.80
2019-05-22T08:07:28.943Z,17.30
2019-05-22T08:10:02.280Z,17.50
2019-05-22T08:12:37.146Z,17.40
2019-05-22T08:15:11.290Z,17.60
2019-05-22T08:17:45.739Z,17.40
2019-05-22T08:20:19.005Z,17.50
2019-05-22T08:22:55.235Z,17.60
2019-05-22T08:25:30.224Z,18.30
2019-05-22T08:28:04.605Z,18.10
2019-05-22T08:30:41.177Z,18.00
2019-05-22T08:33:17.715Z,17.90
2019-05-22T08:35:53.908Z,18.20
2019-05-22T08:38:35.644Z,17.70
2019-05-22T08:41:12.785Z,18.00
2019-05-22T08:44:13.760Z,18.30
2019-05-22T08:46:23.708Z,19.30
2019-05-22T08:48:57.577Z,18.90
2019-05-22T08:51:31.756Z,18.30
2019-05-22T08:54:07.026Z,18.20
2019-05-22T08:56:44.856Z,18.30
2019-05-22T08:59:20.588Z,18.10
2019-05-22T09:01:55.680Z,18.00
2019-05-22T09:04:31.477Z,18.10
2019-05-22T09:07:05.487Z,18.50
2019-05-22T09:09:39.104Z,19.10
2019-05-22T09:12:15.912Z,19.00
2019-05-22T09:14:50.546Z,19.10
2019-05-22T09:17:23.921Z,19.60
2019-05-22T09:19:57.648Z,19.80
2019-05-22T09:22:40.788Z,20.20
2019-05-22T09:25:10.660Z,20.20
2019-05-22T09:27:44.584Z,20.20
2019-05-22T09:30:19.340Z,20.20
2019-05-22T09:32:53.381Z,20.10
2019-05-22T09:35:28.026Z,19.70
2019-05-22T09:38:08.322Z,19.80
2019-05-22T09:40:43.357Z,20.00
2019-05-22T09:43:17.557Z,20.30
2019-05-22T09:45:51.546Z,20.50
2019-05-22T09:48:26.210Z,20.40
2019-05-22T09:51:01.026Z,20.20
2019-05-22T09:53:36.567Z,20.50
2019-05-22T09:56:10.456Z,20.90
2019-05-22T09:58:44.333Z,20.50
2019-05-22T10:01:18.730Z,20.60
2019-05-22T10:03:52.057Z,20.00
2019-05-22T10:06:25.735Z,19.80
2019-05-22T10:09:00.183Z,19.90
2019-05-22T10:11:35.610Z,20.30
2019-05-22T10:14:10.913Z,20.80
2019-05-22T10:16:45.040Z,21.10
2019-05-22T10:19:18.922Z,21.20
2019-05-22T10:21:55.134Z,21.10
2019-05-22T10:24:33.256Z,21.00
2019-05-22T10:27:08.336Z,21.70
2019-05-22T10:29:49.889Z,22.20
2019-05-22T10:32:25.409Z,22.50
2019-05-22T10:34:59.399Z,22.30
2019-05-22T10:37:34.356Z,21.20
2019-05-22T10:40:10.283Z,20.70
2019-05-22T10:42:47.158Z,21.00
2019-05-22T10:45:20.851Z,21.00
2019-05-22T10:47:55.144Z,20.90
2019-05-22T10:50:29.898Z,21.10
2019-05-22T10:53:04.133Z,21.30
2019-05-22T10:55:38.412Z,21.30
2019-05-22T10:58:14.377Z,21.10
2019-05-22T11:00:49.731Z,20.90
2019-05-22T11:03:25.211Z,21.10
2019-05-22T11:06:07.019Z,20.80
2019-05-22T11:08:35.080Z,20.90
2019-05-22T11:11:14.314Z,21.10
2019-05-22T11:14:00.756Z,21.70
2019-05-22T11:16:25.933Z,21.90
2019-05-22T11:19:01.910Z,22.50
2019-05-22T11:21:38.823Z,23.00
2019-05-22T11:24:15.951Z,23.30
2019-05-22T11:26:52.002Z,22.70
2019-05-22T11:29:30.882Z,22.40
2019-05-22T11:32:04.672Z,22.90
2019-05-22T11:34:41.491Z,23.30
2019-05-22T11:37:16.330Z,23.30
2019-05-22T11:39:50.508Z,23.60
2019-05-22T11:42:25.818Z,23.00
2019-05-22T11:45:00.269Z,22.70
2019-05-22T11:47:35.278Z,21.60
2019-05-22T11:50:10.091Z,21.60
2019-05-22T11:52:45.078Z,21.30
2019-05-22T11:55:19.849Z,21.10
2019-05-22T11:57:54.739Z,21.50
2019-05-22T12:00:30.329Z,21.40
2019-05-22T12:03:07.252Z,21.60
2019-05-22T12:05:42.484Z,21.60
2019-05-22T12:08:19.092Z,20.80
2019-05-22T12:10:56.381Z,20.30
2019-05-22T12:13:32.590Z,20.00
2019-05-22T12:16:08.354Z,20.30
2019-05-22T12:18:42.613Z,20.30
2019-05-22T12:21:17.181Z,20.30
2019-05-22T12:23:51.831Z,20.50
2019-05-22T12:26:27.194Z,20.70
2019-05-22T12:29:03.571Z,20.70
2019-05-22T12:31:40.341Z,21.10
2019-05-22T12:34:16.791Z,22.00
2019-05-22T12:36:51.681Z,22.60
2019-05-22T12:39:25.994Z,22.40
2019-05-22T12:42:00.780Z,22.70
2019-05-22T12:44:34.950Z,22.40
2019-05-22T12:47:10.484Z,21.60
2019-05-22T12:49:44.567Z,21.50
2019-05-22T12:52:19.055Z,22.00
2019-05-22T12:54:53.199Z,21.70
2019-05-22T12:57:29.511Z,21.50
2019-05-22T13:00:03.976Z,21.20
2019-05-22T13:02:42.208Z,21.10
2019-05-22T13:05:16.779Z,21.20
2019-05-22T13:07:51.198Z,20.80
2019-05-22T13:10:25.687Z,20.80
2019-05-22T13:12:59.172Z,21.10
2019-05-22T13:15:36.168Z,20.80
2019-05-22T13:18:11.239Z,21.00
2019-05-22T13:21:04.218Z,21.10
2019-05-22T13:23:42.314Z,20.90
2019-05-22T13:26:17.509Z,20.80
2019-05-22T13:28:52.320Z,20.80
2019-05-22T13:31:25.787Z,20.80
2019-05-22T13:34:04.292Z,20.90
2019-05-22T13:36:38.857Z,21.00
2019-05-22T13:39:17.593Z,21.20
2019-05-22T13:41:53.335Z,21.20
2019-05-22T13:44:27.716Z,21.30
2019-05-22T13:47:01.237Z,21.50
2019-05-22T13:49:39.050Z,21.60
2019-05-22T13:52:13.805Z,21.80
2019-05-22T13:54:47.979Z,21.90
2019-05-22T13:57:22.488Z,21.80
2019-05-22T13:59:56.574Z,21.80
2019-05-22T14:02:31.271Z,21.90
2019-05-22T14:05:08.730Z,21.70
2019-05-22T14:07:43.889Z,21.60
2019-05-22T14:10:18.674Z,21.30
2019-05-22T14:12:52.912Z,21.40
2019-05-22T14:15:27.241Z,21.30
2019-05-22T14:18:01.089Z,21.40
2019-05-22T14:20:41.826Z,21.60
2019-05-22T14:23:15.898Z,21.40
2019-05-22T14:25:51.978Z,21.50
2019-05-22T14:28:28.084Z,21.20
2019-05-22T14:31:02.487Z,21.10
2019-05-22T14:33:47.932Z,20.80
2019-05-22T14:36:23.979Z,20.70
2019-05-22T14:38:59.679Z,21.00
2019-05-22T14:41:34.088Z,20.80
2019-05-22T14:44:07.506Z,21.10
2019-05-22T14:46:49.273Z,21.20
2019-05-22T14:49:22.221Z,21.30
2019-05-22T14:51:55.559Z,21.20
2019-05-22T14:54:30.314Z,21.00
2019-05-22T14:57:04.391Z,20.90
2019-05-22T14:59:37.985Z,21.40
2019-05-22T15:02:11.592Z,21.60
2019-05-22T15:04:45.147Z,21.30
2019-05-22T15:07:18.896Z,21.10
2019-05-22T15:09:52.733Z,20.90
2019-05-22T15:12:28.309Z,21.10
2019-05-22T15:15:07.175Z,21.20
2019-05-22T15:17:41.670Z,21.10
2019-05-22T15:20:21.861Z,21.10
2019-05-22T15:22:56.654Z,20.60
2019-05-22T15:25:32.129Z,19.90
2019-05-22T15:28:07.020Z,19.70
2019-05-22T15:30:41.395Z,19.90
2019-05-22T15:33:17.644Z,19.80
2019-05-22T15:35:53.211Z,19.60
2019-05-22T15:38:31.644Z,19.60
2019-05-22T15:41:07.823Z,19.60
2019-05-22T15:43:45.033Z,19.60
2019-05-22T15:46:26.080Z,19.60
2019-05-22T15:49:02.009Z,19.40
2019-05-22T15:51:37.871Z,19.30
2019-05-22T15:54:18.728Z,19.30
2019-05-22T15:56:55.834Z,19.40
2019-05-22T15:59:31.734Z,19.50
2019-05-22T16:02:07.456Z,19.50
2019-05-22T16:04:44.266Z,19.50
2019-05-22T16:07:19.779Z,19.60
2019-05-22T16:09:54.548Z,19.60
2019-05-22T16:12:31.238Z,19.60
2019-05-22T16:15:06.569Z,19.50
2019-05-22T16:17:43.610Z,19.60
2019-05-22T16:20:18.742Z,19.70
2019-05-22T16:22:56.953Z,19.70
2019-05-22T16:25:32.442Z,19.70
2019-05-22T16:28:07.731Z,19.70
2019-05-22T16:30:42.723Z,19.60
2019-05-22T16:33:17.884Z,19.60
2019-05-22T16:35:53.738Z,19.60
2019-05-22T16:38:28.859Z,19.60
2019-05-22T16:41:02.711Z,19.60
2019-05-22T16:43:48.691Z,19.60
2019-05-22T16:46:25.508Z,19.40
2019-05-22T16:49:09.725Z,19.30
2019-05-22T16:51:58.467Z,19.20
2019-05-22T16:54:37.264Z,19.10
2019-05-22T16:57:12.611Z,19.10
2019-05-22T16:59:47.712Z,19.10
2019-05-22T17:02:22.149Z,19.10
2019-05-22T17:05:01.802Z,19.10
2019-05-22T17:07:34.514Z,19.20
2019-05-22T17:10:09.226Z,19.30
2019-05-22T17:12:44.354Z,19.20
2019-05-22T17:15:21.097Z,19.10
2019-05-22T17:17:55.499Z,19.00
2019-05-22T17:20:32.666Z,18.60
2019-05-22T17:23:07.105Z,18.30
2019-05-22T17:25:43.177Z,18.30
2019-05-22T17:28:19.006Z,18.30
2019-05-22T17:30:54.816Z,18.40
2019-05-22T17:33:29.942Z,18.40
2019-05-22T17:36:05.839Z,18.50
2019-05-22T17:38:42.508Z,18.60
2019-05-22T17:41:16.948Z,18.60
2019-05-22T17:43:51.640Z,18.60
2019-05-22T17:46:28.931Z,18.70
2019-05-22T17:49:04.161Z,18.50
2019-05-22T17:51:38.079Z,18.30
2019-05-22T17:54:12.177Z,18.20
2019-05-22T17:56:46.509Z,18.10
2019-05-22T17:59:30.528Z,18.00
2019-05-22T18:02:06.433Z,17.80
2019-05-22T18:04:41.363Z,17.70
2019-05-22T18:07:16.381Z,17.60
2019-05-22T18:09:50.173Z,17.60
2019-05-22T18:12:25.064Z,17.50
2019-05-22T18:15:02.494Z,17.50
2019-05-22T18:17:38.305Z,17.50
2019-05-22T18:20:14.338Z,17.40
2019-05-22T18:22:49.049Z,17.20
2019-05-22T18:25:23.195Z,17.10
2019-05-22T18:27:57.877Z,16.90
2019-05-22T18:30:36.203Z,16.90
2019-05-22T18:33:10.235Z,16.80
2019-05-22T18:35:44.791Z,16.70
2019-05-22T18:38:18.293Z,16.70
2019-05-22T18:40:53.555Z,16.60
2019-05-22T18:43:28.425Z,16.50
2019-05-22T18:46:03.935Z,16.40
2019-05-22T18:48:37.740Z,16.40
2019-05-22T18:51:13.080Z,16.40
2019-05-22T18:53:47.043Z,16.30
2019-05-22T18:56:22.193Z,16.10
2019-05-22T18:58:58.477Z,16.10
2019-05-22T19:01:32.903Z,16.00
2019-05-22T19:04:07.188Z,15.90
2019-05-22T19:06:41.551Z,15.80
2019-05-22T19:09:17.302Z,15.70
2019-05-22T19:11:51.454Z,15.70
2019-05-22T19:14:25.195Z,15.60
2019-05-22T19:17:00.262Z,15.50
2019-05-22T19:19:36.491Z,15.50
2019-05-22T19:22:10.263Z,15.40
2019-05-22T19:24:44.262Z,15.30
2019-05-22T19:27:18.111Z,15.30
2019-05-22T19:29:51.932Z,15.20
2019-05-22T19:32:27.656Z,15.10
2019-05-22T19:35:01.137Z,15.10
2019-05-22T19:37:35.601Z,15.00
2019-05-22T19:40:13.566Z,15.00
2019-05-22T19:42:51.211Z,14.90
2019-05-22T19:45:30.592Z,14.80
2019-05-22T19:48:04.078Z,14.70
2019-05-22T19:50:38.593Z,14.70
2019-05-22T19:53:19.210Z,14.60
2019-05-22T19:55:52.512Z,14.60
2019-05-22T19:58:27.799Z,14.60
2019-05-22T20:01:02.495Z,14.60
2019-05-22T20:03:37.471Z,14.60
2019-05-22T20:06:12.121Z,14.60
2019-05-22T20:08:46.554Z,14.60
2019-05-22T20:11:22.325Z,14.60
2019-05-22T20:13:57.636Z,14.60
2019-05-22T20:16:32.342Z,14.60
2019-05-22T20:19:09.681Z,14.60
2019-05-22T20:21:44.286Z,14.60
2019-05-22T20:24:20.900Z,14.60
2019-05-22T20:26:57.629Z,14.50
2019-05-22T20:29:32.213Z,14.50
2019-05-22T20:32:07.228Z,14.60
2019-05-22T20:34:43.431Z,14.60
2019-05-22T20:37:28.304Z,14.70
2019-05-22T20:40:08.472Z,14.70
2019-05-22T20:42:43.024Z,14.80
2019-05-22T20:45:21.579Z,14.80
2019-05-22T20:48:11.164Z,14.70
2019-05-22T20:50:47.434Z,14.70
2019-05-22T20:53:27.067Z,14.70
2019-05-22T20:56:03.610Z,14.70
2019-05-22T20:58:42.234Z,14.70
2019-05-22T21:01:17.532Z,14.70
2019-05-22T21:03:52.467Z,14.70
2019-05-22T21:06:30.736Z,14.70
2019-05-22T21:09:08.261Z,14.80
2019-05-22T21:11:43.559Z,14.80
2019-05-22T21:14:24.614Z,14.80
2019-05-22T21:17:04.481Z,14.70
2019-05-22T21:19:44.186Z,14.70
2019-05-22T21:22:23.536Z,14.80
2019-05-22T21:24:58.301Z,14.70
2019-05-22T21:27:33.058Z,14.70
2019-05-22T21:30:09.724Z,14.70
2019-05-22T21:32:46.878Z,14.70
2019-05-22T21:35:23.516Z,14.70
2019-05-22T21:37:57.551Z,14.80
2019-05-22T21:40:32.106Z,14.70
2019-05-22T21:43:07.957Z,14.70
2019-05-22T21:45:42.453Z,14.70
2019-05-22T21:48:18.584Z,14.70
2019-05-22T21:50:54.661Z,14.70
2019-05-22T21:53:28.461Z,14.80
2019-05-22T21:56:06.377Z,14.70
2019-05-22T21:58:44.283Z,14.60
2019-05-22T22:01:26.742Z,14.60
2019-05-22T22:04:10.787Z,14.60
2019-05-22T22:06:45.211Z,14.70
2019-05-22T22:09:21.435Z,14.70
2019-05-22T22:11:56.793Z,14.70
2019-05-22T22:14:32.271Z,14.70
2019-05-22T22:17:06.483Z,14.70
2019-05-22T22:19:41.245Z,14.70
2019-05-22T22:22:19.418Z,14.70
2019-05-22T22:24:53.838Z,14.70
2019-05-22T22:27:30.197Z,14.60
2019-05-22T22:30:08.828Z,14.60
2019-05-22T22:32:43.721Z,14.50
2019-05-22T22:35:19.010Z,14.50
2019-05-22T22:37:53.267Z,14.50
2019-05-22T22:40:28.524Z,14.40
2019-05-22T22:43:04.230Z,14.40
2019-05-22T22:45:45.007Z,14.40
2019-05-22T22:48:23.501Z,14.40
2019-05-22T22:50:58.092Z,14.30
2019-05-22T22:53:32.174Z,14.30
2019-05-22T22:56:06.786Z,14.30
2019-05-22T22:58:42.048Z,14.40
2019-05-22T23:01:24.194Z,14.40
2019-05-22T23:04:01.629Z,14.40
2019-05-22T23:06:37.653Z,14.40
2019-05-22T23:09:12.790Z,14.40
2019-05-22T23:11:47.986Z,14.40
2019-05-22T23:14:23.715Z,14.40
2019-05-22T23:16:57.749Z,14.50
2019-05-22T23:19:36.528Z,14.50
2019-05-22T23:22:08.703Z,14.50
2019-05-22T23:24:44.489Z,14.50
2019-05-22T23:27:20.088Z,14.50
2019-05-22T23:29:56.497Z,14.40
2019-05-22T23:32:32.153Z,14.40
2019-05-22T23:35:06.967Z,14.40
2019-05-22T23:37:41.637Z,14.40
2019-05-22T23:40:17.999Z,14.40
2019-05-22T23:42:52.097Z,14.30
2019-05-22T23:45:25.496Z,14.40
2019-05-22T23:48:15.198Z,14.30
2019-05-22T23:50:50.628Z,14.40
2019-05-22T23:53:26.070Z,14.40
2019-05-22T23:55:59.367Z,14.40
2019-05-22T23:58:32.952Z,14.40
